KLM1123 DNAA-DNMM
Flight info
| Callsign | KLM1123 |
|---|---|
| Flight time | N/A |
| Altitude | 34000 |
| Route | IKSEM1Q IKSEM DCT VONUK UH340 ERSED ERSED1N |
| Aircraft | A321/M-SDE3FGHIRWY/LB1 |
Departure
| Time | 2026-05-09 09:30 |
|---|---|
| Airport | Nnamdi Azikiwe International Airport (DNAA) |
Arrival
| Time | N/A |
|---|---|
| Airport | Murtala Muhammed International Airport (DNMM) |
| Time | Latitude | Longitude | Altitude | Speed | Heading |
|---|---|---|---|---|---|
| 2026-05-09 09:03 | 9.00495 | 7.26900 | 1120 ft | 0 kts | 73° |
| 2026-05-09 09:16 | 9.00494 | 7.26896 | 1122 ft | 3 kts | 73° |
| 2026-05-09 09:17 | 9.00489 | 7.26878 | 1120 ft | 3 kts | 73° |
| 2026-05-09 09:17 | 9.00483 | 7.26860 | 1123 ft | 3 kts | 73° |
| 2026-05-09 09:17 | 9.00478 | 7.26841 | 1119 ft | 3 kts | 48° |
| 2026-05-09 09:17 | 9.00462 | 7.26832 | 1119 ft | 3 kts | 345° |
| 2026-05-09 09:18 | 9.00453 | 7.26835 | 1117 ft | 0 kts | 315° |
| 2026-05-09 09:22 | 9.00453 | 7.26834 | 1117 ft | 1 kts | 314° |
| 2026-05-09 09:22 | 9.00457 | 7.26828 | 1119 ft | 3 kts | 302° |
| 2026-05-09 09:22 | 9.00458 | 7.26785 | 1128 ft | 8 kts | 263° |
| 2026-05-09 09:22 | 9.00453 | 7.26757 | 1119 ft | 0 kts | 256° |
| 2026-05-09 09:23 | 9.00450 | 7.26742 | 1123 ft | 5 kts | 262° |
| 2026-05-09 09:23 | 9.00443 | 7.26703 | 1120 ft | 6 kts | 265° |
| 2026-05-09 09:23 | 9.00461 | 7.26655 | 1123 ft | 8 kts | 297° |
| 2026-05-09 09:23 | 9.00496 | 7.26609 | 1124 ft | 9 kts | 324° |
| 2026-05-09 09:24 | 9.00550 | 7.26565 | 1118 ft | 11 kts | 320° |
| 2026-05-09 09:24 | 9.00612 | 7.26516 | 1122 ft | 11 kts | 334° |
| 2026-05-09 09:24 | 9.00687 | 7.26532 | 1124 ft | 12 kts | 33° |
| 2026-05-09 09:24 | 9.00756 | 7.26582 | 1119 ft | 13 kts | 38° |
| 2026-05-09 09:25 | 9.00826 | 7.26638 | 1131 ft | 13 kts | 38° |
| 2026-05-09 09:25 | 9.00902 | 7.26691 | 1132 ft | 13 kts | 38° |
| 2026-05-09 09:25 | 9.00989 | 7.26748 | 1133 ft | 17 kts | 29° |
| 2026-05-09 09:25 | 9.01085 | 7.26824 | 1136 ft | 18 kts | 36° |
| 2026-05-09 09:26 | 9.01190 | 7.26895 | 1139 ft | 18 kts | 37° |
| 2026-05-09 09:26 | 9.01296 | 7.26969 | 1139 ft | 19 kts | 37° |
| 2026-05-09 09:26 | 9.01410 | 7.27041 | 1139 ft | 19 kts | 28° |
| 2026-05-09 09:26 | 9.01521 | 7.27118 | 1142 ft | 20 kts | 32° |
| 2026-05-09 09:27 | 9.01632 | 7.27202 | 1140 ft | 20 kts | 35° |
| 2026-05-09 09:27 | 9.01751 | 7.27282 | 1143 ft | 21 kts | 32° |
| 2026-05-09 09:27 | 9.01874 | 7.27353 | 1144 ft | 16 kts | 13° |
| 2026-05-09 09:27 | 9.01952 | 7.27330 | 1145 ft | 0 kts | 316° |
| 2026-05-09 09:28 | 9.01955 | 7.27327 | 1145 ft | 1 kts | 311° |
| 2026-05-09 09:28 | 9.01964 | 7.27313 | 1143 ft | 4 kts | 303° |
| 2026-05-09 09:28 | 9.01985 | 7.27256 | 1146 ft | 6 kts | 274° |
| 2026-05-09 09:28 | 9.01984 | 7.27249 | 1146 ft | 2 kts | 264° |
| 2026-05-09 09:29 | 9.01976 | 7.27227 | 1144 ft | 4 kts | 241° |
| 2026-05-09 09:29 | 9.01959 | 7.27211 | 1144 ft | 0 kts | 217° |
| 2026-05-09 09:29 | 9.01952 | 7.27207 | 1143 ft | 0 kts | 213° |
| 2026-05-09 09:29 | 9.01852 | 7.27187 | 1143 ft | 36 kts | 204° |
| 2026-05-09 09:30 | 9.01534 | 7.26941 | 1144 ft | 89 kts | 218° |
| 2026-05-09 09:30 | 9.00872 | 7.26454 | 1120 ft | 144 kts | 215° |
| 2026-05-09 09:30 | 8.99899 | 7.25874 | 1299 ft | 172 kts | 209° |
| 2026-05-09 09:30 | 8.98820 | 7.25281 | 1827 ft | 181 kts | 205° |
| 2026-05-09 09:31 | 8.97693 | 7.24667 | 2455 ft | 184 kts | 210° |
| 2026-05-09 09:31 | 8.96520 | 7.24062 | 2968 ft | 200 kts | 199° |
| 2026-05-09 09:31 | 8.95074 | 7.23829 | 3372 ft | 223 kts | 177° |
| 2026-05-09 09:32 | 8.91630 | 7.23816 | 4151 ft | 272 kts | 184° |
| 2026-05-09 09:32 | 8.89671 | 7.23688 | 4552 ft | 292 kts | 184° |
| 2026-05-09 09:32 | 8.87660 | 7.23552 | 5645 ft | 281 kts | 184° |
| 2026-05-09 09:32 | 8.85732 | 7.23432 | 6722 ft | 277 kts | 184° |
| 2026-05-09 09:33 | 8.83802 | 7.23324 | 7579 ft | 279 kts | 183° |
| 2026-05-09 09:33 | 8.81852 | 7.23225 | 8383 ft | 282 kts | 183° |
| 2026-05-09 09:33 | 8.79880 | 7.23129 | 9169 ft | 286 kts | 183° |
| 2026-05-09 09:33 | 8.77878 | 7.23034 | 9932 ft | 289 kts | 183° |
| 2026-05-09 09:34 | 8.75821 | 7.22941 | 10394 ft | 306 kts | 183° |
| 2026-05-09 09:34 | 8.73615 | 7.22844 | 10634 ft | 327 kts | 183° |
| 2026-05-09 09:34 | 8.71306 | 7.22742 | 11179 ft | 336 kts | 183° |
| 2026-05-09 09:36 | 8.55484 | 7.19005 | 15696 ft | 360 kts | 238° |
| 2026-05-09 09:36 | 8.54517 | 7.16675 | 16295 ft | 363 kts | 257° |
| 2026-05-09 09:36 | 8.53974 | 7.14179 | 16921 ft | 365 kts | 258° |
| 2026-05-09 09:37 | 8.53435 | 7.11663 | 17530 ft | 368 kts | 258° |
| 2026-05-09 09:37 | 8.52886 | 7.09124 | 18103 ft | 371 kts | 258° |
| 2026-05-09 09:37 | 8.52327 | 7.06559 | 18668 ft | 375 kts | 257° |
| 2026-05-09 09:37 | 8.51762 | 7.03982 | 19219 ft | 378 kts | 257° |
| 2026-05-09 09:38 | 8.51190 | 7.01379 | 19772 ft | 381 kts | 257° |
| 2026-05-09 09:38 | 8.50614 | 6.98754 | 20319 ft | 384 kts | 257° |
| 2026-05-09 09:38 | 8.50034 | 6.96110 | 20836 ft | 387 kts | 257° |
| 2026-05-09 09:38 | 8.49452 | 6.93442 | 21336 ft | 390 kts | 257° |
| 2026-05-09 09:39 | 8.48867 | 6.90759 | 21821 ft | 393 kts | 257° |
| 2026-05-09 09:39 | 8.48278 | 6.88058 | 22305 ft | 395 kts | 257° |
| 2026-05-09 09:39 | 8.47684 | 6.85338 | 22782 ft | 398 kts | 257° |
| 2026-05-09 09:39 | 8.47084 | 6.82596 | 23238 ft | 401 kts | 257° |
| 2026-05-09 09:40 | 8.46479 | 6.79839 | 23681 ft | 404 kts | 257° |
| 2026-05-09 09:40 | 8.45868 | 6.77063 | 24116 ft | 406 kts | 257° |
| 2026-05-09 09:40 | 8.45254 | 6.74270 | 24544 ft | 409 kts | 257° |
| 2026-05-09 09:40 | 8.44636 | 6.71453 | 24961 ft | 412 kts | 257° |
| 2026-05-09 09:41 | 8.44015 | 6.68620 | 25358 ft | 415 kts | 257° |
| 2026-05-09 09:41 | 8.43390 | 6.65767 | 25783 ft | 417 kts | 257° |
| 2026-05-09 09:41 | 8.42758 | 6.62891 | 26194 ft | 420 kts | 257° |
| 2026-05-09 09:41 | 8.42122 | 6.60009 | 26597 ft | 422 kts | 257° |
| 2026-05-09 09:42 | 8.41493 | 6.57149 | 26979 ft | 424 kts | 257° |
| 2026-05-09 09:42 | 8.40852 | 6.54228 | 27349 ft | 427 kts | 257° |
| 2026-05-09 09:42 | 8.40208 | 6.51297 | 27712 ft | 429 kts | 257° |
| 2026-05-09 09:42 | 8.39558 | 6.48348 | 28073 ft | 431 kts | 257° |
| 2026-05-09 09:43 | 8.38662 | 6.45454 | 28410 ft | 434 kts | 248° |
| 2026-05-09 09:43 | 8.37330 | 6.42713 | 28746 ft | 436 kts | 242° |
| 2026-05-09 09:43 | 8.35883 | 6.40010 | 29082 ft | 439 kts | 242° |
| 2026-05-09 09:43 | 8.34428 | 6.37287 | 29410 ft | 441 kts | 242° |
| 2026-05-09 09:44 | 8.32971 | 6.34551 | 29719 ft | 444 kts | 242° |
| 2026-05-09 09:44 | 8.31506 | 6.31791 | 30033 ft | 446 kts | 242° |
| 2026-05-09 09:44 | 8.30038 | 6.29019 | 30343 ft | 448 kts | 242° |
| 2026-05-09 09:44 | 8.28565 | 6.26239 | 30637 ft | 451 kts | 242° |
| 2026-05-09 09:45 | 8.27084 | 6.23446 | 30921 ft | 452 kts | 242° |
| 2026-05-09 09:45 | 8.25592 | 6.20639 | 31190 ft | 455 kts | 242° |
| 2026-05-09 09:45 | 8.24090 | 6.17822 | 31447 ft | 457 kts | 242° |
| 2026-05-09 09:45 | 8.22581 | 6.14990 | 31695 ft | 458 kts | 242° |
| 2026-05-09 09:46 | 8.21068 | 6.12156 | 31953 ft | 460 kts | 242° |
| 2026-05-09 09:46 | 8.18001 | 6.06401 | 32010 ft | 471 kts | 242° |
| 2026-05-09 09:47 | 8.14863 | 6.00496 | 32010 ft | 483 kts | 242° |
| 2026-05-09 09:47 | 8.11654 | 5.94469 | 32255 ft | 487 kts | 242° |
| 2026-05-09 09:47 | 8.10073 | 5.91498 | 32783 ft | 474 kts | 242° |
| 2026-05-09 09:48 | 8.09428 | 5.90290 | 32823 ft | 473 kts | 242° |
| 2026-05-09 09:49 | 8.07678 | 5.87021 | 32863 ft | 471 kts | 242° |
| 2026-05-09 09:49 | 8.04560 | 5.81213 | 32864 ft | 470 kts | 242° |
| 2026-05-09 09:50 | 8.01477 | 5.75455 | 32864 ft | 469 kts | 242° |
| 2026-05-09 09:50 | 7.98463 | 5.69810 | 32864 ft | 468 kts | 242° |
| 2026-05-09 09:51 | 7.95380 | 5.64040 | 32864 ft | 467 kts | 242° |
| 2026-05-09 09:51 | 7.94259 | 5.61940 | 32864 ft | 466 kts | 242° |
| 2026-05-09 09:52 | 7.92280 | 5.58233 | 32863 ft | 466 kts | 242° |
| 2026-05-09 09:53 | 7.90746 | 5.55363 | 32864 ft | 466 kts | 242° |
| 2026-05-09 09:53 | 7.87667 | 5.49614 | 32864 ft | 465 kts | 242° |
| 2026-05-09 09:54 | 7.84594 | 5.43878 | 32863 ft | 465 kts | 242° |
| 2026-05-09 09:54 | 7.81525 | 5.38140 | 32864 ft | 465 kts | 242° |
| 2026-05-09 09:55 | 7.80971 | 5.37103 | 32864 ft | 465 kts | 242° |
| 2026-05-09 09:56 | 7.78816 | 5.33075 | 32864 ft | 465 kts | 242° |
| 2026-05-09 09:57 | 7.75742 | 5.27347 | 32864 ft | 464 kts | 242° |
| 2026-05-09 09:57 | 7.72670 | 5.21621 | 32864 ft | 464 kts | 242° |
| 2026-05-09 09:58 | 7.69597 | 5.15897 | 32864 ft | 464 kts | 242° |
| 2026-05-09 09:58 | 7.66523 | 5.10169 | 32864 ft | 464 kts | 242° |
| 2026-05-09 09:59 | 7.63450 | 5.04447 | 32864 ft | 464 kts | 242° |
| 2026-05-09 09:59 | 7.60379 | 4.98720 | 32864 ft | 464 kts | 242° |
| 2026-05-09 10:00 | 7.57309 | 4.92996 | 32864 ft | 464 kts | 242° |
| 2026-05-09 10:00 | 7.54251 | 4.87304 | 32866 ft | 464 kts | 242° |
| 2026-05-09 10:00 | 7.52706 | 4.84435 | 32603 ft | 470 kts | 242° |
| 2026-05-09 10:01 | 7.51124 | 4.81500 | 32095 ft | 481 kts | 242° |
| 2026-05-09 10:01 | 7.47943 | 4.75593 | 32118 ft | 479 kts | 242° |
| 2026-05-09 10:02 | 7.44779 | 4.69696 | 32065 ft | 478 kts | 242° |
| 2026-05-09 10:02 | 7.41615 | 4.63803 | 32010 ft | 478 kts | 242° |
| 2026-05-09 10:03 | 7.38440 | 4.57922 | 31971 ft | 477 kts | 242° |
| 2026-05-09 10:03 | 7.35273 | 4.52053 | 31916 ft | 477 kts | 242° |
| 2026-05-09 10:04 | 7.32117 | 4.46180 | 31879 ft | 476 kts | 242° |
| 2026-05-09 10:04 | 7.28962 | 4.40322 | 31836 ft | 476 kts | 242° |
| 2026-05-09 10:05 | 7.25806 | 4.34473 | 31802 ft | 475 kts | 242° |
| 2026-05-09 10:05 | 7.22854 | 4.28578 | 31746 ft | 474 kts | 252° |
| 2026-05-09 10:05 | 7.22162 | 4.25295 | 31713 ft | 474 kts | 263° |
| 2026-05-09 10:06 | 7.21763 | 4.22001 | 31677 ft | 474 kts | 263° |
| 2026-05-09 10:06 | 7.21370 | 4.18739 | 31498 ft | 477 kts | 263° |
| 2026-05-09 10:06 | 7.20970 | 4.15411 | 31358 ft | 480 kts | 263° |
| 2026-05-09 10:06 | 7.20567 | 4.12075 | 31224 ft | 482 kts | 263° |
| 2026-05-09 10:07 | 7.20151 | 4.08712 | 31019 ft | 485 kts | 262° |
| 2026-05-09 10:07 | 7.19730 | 4.05318 | 30703 ft | 490 kts | 262° |
| 2026-05-09 10:07 | 7.19298 | 4.01916 | 30581 ft | 491 kts | 261° |
| 2026-05-09 10:07 | 7.18834 | 3.98496 | 30244 ft | 496 kts | 260° |
| 2026-05-09 10:08 | 7.18341 | 3.95031 | 29804 ft | 503 kts | 262° |
| 2026-05-09 10:08 | 7.17838 | 3.91535 | 29636 ft | 504 kts | 262° |
| 2026-05-09 10:08 | 7.17400 | 3.88027 | 29526 ft | 503 kts | 263° |
| 2026-05-09 10:08 | 7.16962 | 3.84594 | 29909 ft | 481 kts | 262° |
| 2026-05-09 10:09 | 7.16520 | 3.81343 | 30044 ft | 461 kts | 262° |
| 2026-05-09 10:09 | 7.16067 | 3.78124 | 28902 ft | 470 kts | 261° |
| 2026-05-09 10:09 | 7.15561 | 3.74835 | 27654 ft | 480 kts | 261° |
| 2026-05-09 10:09 | 7.15037 | 3.71493 | 26522 ft | 484 kts | 261° |
| 2026-05-09 10:10 | 7.14510 | 3.68138 | 25411 ft | 487 kts | 261° |
| 2026-05-09 10:10 | 7.13983 | 3.64785 | 24412 ft | 482 kts | 261° |
| 2026-05-09 10:10 | 7.13464 | 3.61484 | 23586 ft | 472 kts | 261° |
| 2026-05-09 10:10 | 7.12953 | 3.58241 | 22741 ft | 466 kts | 261° |
| 2026-05-09 10:11 | 7.12479 | 3.55036 | 21909 ft | 459 kts | 265° |
| 2026-05-09 10:11 | 7.12715 | 3.51874 | 21120 ft | 452 kts | 285° |
| 2026-05-09 10:11 | 7.14056 | 3.49005 | 20400 ft | 464 kts | 306° |
| 2026-05-09 10:11 | 7.16268 | 3.46589 | 20058 ft | 466 kts | 316° |
| 2026-05-09 10:12 | 7.18536 | 3.44420 | 20304 ft | 435 kts | 319° |
| 2026-05-09 10:12 | 7.20937 | 3.42800 | 20579 ft | 398 kts | 335° |
| 2026-05-09 10:12 | 7.23475 | 3.41981 | 20840 ft | 370 kts | 350° |
| 2026-05-09 10:12 | 7.25977 | 3.41761 | 20601 ft | 359 kts | 1° |
| 2026-05-09 10:13 | 7.28479 | 3.42066 | 19794 ft | 366 kts | 13° |
| 2026-05-09 10:13 | 7.29276 | 3.42281 | 19537 ft | 367 kts | 17° |
| 2026-05-09 10:13 | 7.33126 | 3.44212 | 18182 ft | 374 kts | 36° |
| 2026-05-09 10:13 | 7.35059 | 3.45982 | 17383 ft | 377 kts | 49° |
| 2026-05-09 10:14 | 7.36580 | 3.48143 | 16576 ft | 380 kts | 61° |
| 2026-05-09 10:14 | 7.37610 | 3.50593 | 15779 ft | 381 kts | 73° |
| 2026-05-09 10:14 | 7.38219 | 3.53191 | 14971 ft | 382 kts | 79° |
| 2026-05-09 10:14 | 7.38638 | 3.55837 | 14166 ft | 382 kts | 82° |
| 2026-05-09 10:15 | 7.38931 | 3.58498 | 13361 ft | 381 kts | 86° |
| 2026-05-09 10:15 | 7.38722 | 3.61140 | 12655 ft | 377 kts | 104° |
| 2026-05-09 10:15 | 7.37780 | 3.63523 | 12136 ft | 369 kts | 121° |
| 2026-05-09 10:15 | 7.36172 | 3.65526 | 11602 ft | 360 kts | 139° |
| 2026-05-09 10:16 | 7.34142 | 3.66893 | 11085 ft | 353 kts | 155° |
| 2026-05-09 10:16 | 7.31826 | 3.67602 | 10559 ft | 346 kts | 172° |
| 2026-05-09 10:16 | 7.29448 | 3.67665 | 10035 ft | 339 kts | 182° |
| 2026-05-09 10:16 | 7.27104 | 3.67586 | 9507 ft | 334 kts | 182° |
| 2026-05-09 10:17 | 7.24800 | 3.67514 | 9089 ft | 326 kts | 182° |
| 2026-05-09 10:17 | 7.22586 | 3.67447 | 8989 ft | 309 kts | 182° |
| 2026-05-09 10:17 | 7.20502 | 3.67384 | 9005 ft | 291 kts | 182° |
| 2026-05-09 10:17 | 7.18502 | 3.67325 | 8981 ft | 287 kts | 182° |
| 2026-05-09 10:18 | 7.16512 | 3.67265 | 8854 ft | 285 kts | 182° |
| 2026-05-09 10:18 | 7.14530 | 3.67204 | 8728 ft | 284 kts | 182° |
| 2026-05-09 10:18 | 7.12556 | 3.67144 | 8603 ft | 284 kts | 182° |
| 2026-05-09 10:18 | 7.10585 | 3.67084 | 8480 ft | 283 kts | 182° |
| 2026-05-09 10:19 | 7.08615 | 3.67025 | 8352 ft | 283 kts | 182° |
| 2026-05-09 10:19 | 7.06651 | 3.66964 | 8227 ft | 282 kts | 182° |
| 2026-05-09 10:19 | 7.04685 | 3.66902 | 8101 ft | 282 kts | 182° |
| 2026-05-09 10:19 | 7.02732 | 3.66839 | 7976 ft | 281 kts | 182° |
| 2026-05-09 10:20 | 7.00779 | 3.66776 | 7851 ft | 281 kts | 182° |
| 2026-05-09 10:20 | 6.98828 | 3.66716 | 7727 ft | 280 kts | 182° |
| 2026-05-09 10:20 | 6.96884 | 3.66656 | 7601 ft | 279 kts | 182° |
| 2026-05-09 10:20 | 6.94967 | 3.66600 | 7475 ft | 279 kts | 182° |
| 2026-05-09 10:21 | 6.93029 | 3.66541 | 7351 ft | 278 kts | 182° |
| 2026-05-09 10:21 | 6.91092 | 3.66484 | 7226 ft | 278 kts | 182° |
| 2026-05-09 10:21 | 6.89156 | 3.66427 | 7103 ft | 277 kts | 182° |
| 2026-05-09 10:21 | 6.87235 | 3.66369 | 6995 ft | 276 kts | 182° |
| 2026-05-09 10:22 | 6.85366 | 3.65994 | 7013 ft | 276 kts | 205° |
| 2026-05-09 10:22 | 6.83858 | 3.64835 | 7012 ft | 275 kts | 232° |
| 2026-05-09 10:22 | 6.83022 | 3.63122 | 7011 ft | 274 kts | 258° |
| 2026-05-09 10:22 | 6.82887 | 3.61214 | 6989 ft | 275 kts | 269° |
| 2026-05-09 10:23 | 6.82861 | 3.59293 | 6854 ft | 275 kts | 269° |
| 2026-05-09 10:23 | 6.82838 | 3.57371 | 6594 ft | 273 kts | 269° |
| 2026-05-09 10:23 | 6.82812 | 3.55468 | 6276 ft | 271 kts | 269° |
| 2026-05-09 10:23 | 6.82786 | 3.53578 | 5949 ft | 269 kts | 269° |
| 2026-05-09 10:24 | 6.82759 | 3.51693 | 5622 ft | 269 kts | 269° |
| 2026-05-09 10:24 | 6.82730 | 3.49819 | 5300 ft | 268 kts | 269° |
| 2026-05-09 10:24 | 6.82700 | 3.47947 | 4977 ft | 267 kts | 269° |
| 2026-05-09 10:24 | 6.82670 | 3.46085 | 4653 ft | 266 kts | 269° |
| 2026-05-09 10:25 | 6.82643 | 3.44244 | 4368 ft | 262 kts | 269° |
| 2026-05-09 10:25 | 6.82613 | 3.42406 | 3947 ft | 263 kts | 269° |
| 2026-05-09 10:25 | 6.82582 | 3.40529 | 3246 ft | 267 kts | 269° |
| 2026-05-09 10:25 | 6.82552 | 3.38706 | 3067 ft | 260 kts | 269° |
| 2026-05-09 10:26 | 6.82525 | 3.36924 | 2983 ft | 247 kts | 269° |
| 2026-05-09 10:26 | 6.82468 | 3.35273 | 2998 ft | 226 kts | 262° |
| 2026-05-09 10:26 | 6.82035 | 3.33806 | 3022 ft | 212 kts | 244° |
| 2026-05-09 10:26 | 6.81229 | 3.32618 | 3017 ft | 196 kts | 227° |
| 2026-05-09 10:27 | 6.80242 | 3.31807 | 3029 ft | 170 kts | 212° |
| 2026-05-09 10:27 | 6.79235 | 3.31337 | 3005 ft | 153 kts | 199° |
| 2026-05-09 10:27 | 6.78219 | 3.31115 | 3006 ft | 148 kts | 187° |
| 2026-05-09 10:27 | 6.77200 | 3.31091 | 3005 ft | 146 kts | 180° |
| 2026-05-09 10:28 | 6.76189 | 3.31102 | 3011 ft | 145 kts | 180° |
| 2026-05-09 10:28 | 6.75180 | 3.31114 | 3012 ft | 145 kts | 180° |
| 2026-05-09 10:28 | 6.74182 | 3.31126 | 2950 ft | 145 kts | 180° |
| 2026-05-09 10:28 | 6.73174 | 3.31138 | 2837 ft | 145 kts | 180° |
| 2026-05-09 10:29 | 6.72169 | 3.31150 | 2673 ft | 144 kts | 180° |
| 2026-05-09 10:29 | 6.71168 | 3.31162 | 2486 ft | 144 kts | 180° |
| 2026-05-09 10:29 | 6.70171 | 3.31175 | 2299 ft | 143 kts | 180° |
| 2026-05-09 10:29 | 6.69179 | 3.31187 | 2112 ft | 143 kts | 180° |
| 2026-05-09 10:30 | 6.68187 | 3.31199 | 1922 ft | 142 kts | 180° |
| 2026-05-09 10:30 | 6.67195 | 3.31208 | 1729 ft | 143 kts | 179° |
| 2026-05-09 10:30 | 6.66201 | 3.31223 | 1540 ft | 142 kts | 180° |
| 2026-05-09 10:30 | 6.65214 | 3.31235 | 1354 ft | 141 kts | 180° |
| 2026-05-09 10:31 | 6.64230 | 3.31246 | 1164 ft | 142 kts | 181° |
| 2026-05-09 10:31 | 6.63248 | 3.31258 | 979 ft | 141 kts | 180° |